Details From ESGG - Goteborg Landvetter
To EKYT - Aalborg
Flight Number -
Tags Generated
Created
Modified
Stats Distance 86 nm / 158 km
Max Altitude 0 ft / 0 m
Waypoints 2
Social Downloads 2
Likes 0
Share VATSIM

Download

Looking for another format? Having issues loading an existing format? Contact us
Advertisement - Login to hide

Notes

Generated

Route

ESGG EKYT

ID Type Via Altitude Latitude Longitude Leg Dist Tot Dist Heading (true) Name
O ESGG APT - 0 ft / 0 m 57.64952˚ 12.26771˚ - 0 nm - -
O EKYT APT - 0 ft / 0 m 57.09191˚ 9.83548˚ 85 nm 85 nm 248° / 246° -

Altitude Profile

Advertisement - Login to hide

ESGG

Details ICAO ESGG (GOT)
Name Goteborg Landvetter
Region Sweden
Timezone Europe/Stockholm (UTC+2.0)
Stats Elevation 506 ft / 154 m (AMSL)
Location 57.662836° 12.279819°
Runways 1
Magnetic Variation 3.786° E

METAR

Not found

TAF

TAF TAF ESGG 272330Z 2800/2824 10008KT CAVOK PROB40 2812/2818 SHRA BKN055CB

Decode

Departure Runways

ID Width Length Bearing (true) Bearing (mag) Surface Threshold Offset Overrun Length
03 148 ft / 45 m 10,804 ft / 3,293 m 25.94° 22.15° Asphalt 0 ft / 0 m 207 ft / 63 m
21 148 ft / 45 m 10,804 ft / 3,293 m 205.96° 202.17° Asphalt 0 ft / 0 m 207 ft / 63 m

EKYT

Details ICAO EKYT (AAL)
Name Aalborg
Region Denmark / Faroe Islands
Timezone Europe/Copenhagen (UTC+2.0)
Stats Elevation 10 ft / 3 m (AMSL)
Location 57.094186° 9.855744°
Runways 2
Magnetic Variation 2.861° E

METAR

Not found

TAF

TAF EKYT 272328Z 2800/2824 08012KT 9999 FEW030 BKN080 TEMPO 2800/2824 09015G25KT 7000 SHRA SCT040CB PROB40 2800/2824 TSRA

Decode

Destination Runways

ID Width Length Bearing (true) Bearing (mag) Surface Threshold Offset Overrun Length
08L 148 ft / 45 m 8,683 ft / 2,647 m 83.20° 80.34° Asphalt 0 ft / 0 m 896 ft / 273 m
08R 75 ft / 23 m 8,338 ft / 2,542 m 83.23° 80.37° Asphalt 0 ft / 0 m 492 ft / 150 m
26L 75 ft / 23 m 8,338 ft / 2,542 m 263.26° 260.40° Asphalt 0 ft / 0 m 492 ft / 150 m
26R 148 ft / 45 m 8,683 ft / 2,647 m 263.24° 260.38° Asphalt 0 ft / 0 m 728 ft / 222 m

Approach Navaids

Runway Type Ident Frequency Range Bearing (true) Bearing (mag) Slope Elevation
08L Localiser AE 109.90 MHz 18 nm / 33 km 83.27° 80.41° - 10 ft / 3 m (AMSL)
08L Glidescope AE 109.90 MHz 10 nm / 19 km 83.22° 80.36° 2.75° 10 ft / 3 m (AMSL)
08L DME AE 109.90 MHz 18 nm / 33 km - - - 19 ft / 6 m (AMSL)
26R Localiser YT 109.90 MHz 18 nm / 33 km 263.19° 260.33° - 10 ft / 3 m (AMSL)
26R Glidescope YT 109.90 MHz 10 nm / 19 km 263.22° 260.36° 2.75° 10 ft / 3 m (AMSL)
26R DME YT 109.90 MHz 18 nm / 33 km - - - 19 ft / 6 m (AMSL)

Popular Alternatives